sensor_id;sensor_type;location;lat;lon;timestamp;temperature;humidity
17284;DHT22;8760;52.248;20.952;2022-08-21T00:00:19;22.90;50.00
17284;DHT22;8760;52.248;20.952;2022-08-21T00:02:50;22.80;99.90
17284;DHT22;8760;52.248;20.952;2022-08-21T00:05:17;22.80;99.90
17284;DHT22;8760;52.248;20.952;2022-08-21T00:07:46;22.70;1.00
17284;DHT22;8760;52.248;20.952;2022-08-21T00:10:13;22.70;99.90
17284;DHT22;8760;52.248;20.952;2022-08-21T00:12:42;22.70;99.90
17284;DHT22;8760;52.248;20.952;2022-08-21T00:15:10;22.50;1.00
17284;DHT22;8760;52.248;20.952;2022-08-21T00:17:37;22.50;1.00
17284;DHT22;8760;52.248;20.952;2022-08-21T00:20:06;22.50;1.00
17284;DHT22;8760;52.248;20.952;2022-08-21T00:22:34;22.40;99.90
17284;DHT22;8760;52.248;20.952;2022-08-21T00:25:03;22.40;99.90
17284;DHT22;8760;52.248;20.952;2022-08-21T00:27:31;22.30;1.00
17284;DHT22;8760;52.248;20.952;2022-08-21T00:29:57;22.30;99.90
17284;DHT22;8760;52.248;20.952;2022-08-21T00:32:26;22.30;99.90
17284;DHT22;8760;52.248;20.952;2022-08-21T00:34:53;22.20;1.00
17284;DHT22;8760;52.248;20.952;2022-08-21T00:37:20;22.10;1.00
17284;DHT22;8760;52.248;20.952;2022-08-21T00:39:48;22.10;1.00
17284;DHT22;8760;52.248;20.952;2022-08-21T00:42:17;22.10;99.90
17284;DHT22;8760;52.248;20.952;2022-08-21T00:44:47;22.10;99.90
17284;DHT22;8760;52.248;20.952;2022-08-21T00:47:15;22.10;1.00
17284;DHT22;8760;52.248;20.952;2022-08-21T00:49:42;22.00;1.00
17284;DHT22;8760;52.248;20.952;2022-08-21T00:52:12;22.00;1.00
17284;DHT22;8760;52.248;20.952;2022-08-21T00:54:40;22.00;56.20
17284;DHT22;8760;52.248;20.952;2022-08-21T00:57:13;21.90;99.90
17284;DHT22;8760;52.248;20.952;2022-08-21T00:59:45;21.80;16.10
17284;DHT22;8760;52.248;20.952;2022-08-21T01:02:12;21.80;99.90
17284;DHT22;8760;52.248;20.952;2022-08-21T01:04:39;21.80;1.50
17284;DHT22;8760;52.248;20.952;2022-08-21T01:07:06;21.80;1.00
17284;DHT22;8760;52.248;20.952;2022-08-21T01:09:33;21.80;99.90
17284;DHT22;8760;52.248;20.952;2022-08-21T01:12:00;21.70;99.90
17284;DHT22;8760;52.248;20.952;2022-08-21T01:14:27;21.70;1.00
17284;DHT22;8760;52.248;20.952;2022-08-21T01:16:58;21.70;99.90
17284;DHT22;8760;52.248;20.952;2022-08-21T01:19:26;21.60;99.90
17284;DHT22;8760;52.248;20.952;2022-08-21T01:21:55;21.70;1.00
17284;DHT22;8760;52.248;20.952;2022-08-21T01:24:22;21.70;99.90
17284;DHT22;8760;52.248;20.952;2022-08-21T01:26:49;21.60;1.00
17284;DHT22;8760;52.248;20.952;2022-08-21T01:29:26;21.60;1.00
17284;DHT22;8760;52.248;20.952;2022-08-21T01:31:55;21.50;1.00
17284;DHT22;8760;52.248;20.952;2022-08-21T01:34:22;21.50;1.00
17284;DHT22;8760;52.248;20.952;2022-08-21T01:36:49;21.40;1.00
17284;DHT22;8760;52.248;20.952;2022-08-21T01:39:17;21.40;1.00
17284;DHT22;8760;52.248;20.952;2022-08-21T01:41:44;21.30;1.00
17284;DHT22;8760;52.248;20.952;2022-08-21T01:44:10;21.30;1.00
17284;DHT22;8760;52.248;20.952;2022-08-21T01:46:37;21.20;1.00
17284;DHT22;8760;52.248;20.952;2022-08-21T01:49:04;21.20;1.00
17284;DHT22;8760;52.248;20.952;2022-08-21T01:51:32;21.10;1.00
17284;DHT22;8760;52.248;20.952;2022-08-21T01:53:59;21.10;1.00
17284;DHT22;8760;52.248;20.952;2022-08-21T01:56:27;21.00;1.00
17284;DHT22;8760;52.248;20.952;2022-08-21T01:58:54;21.00;1.00
17284;DHT22;8760;52.248;20.952;2022-08-21T02:01:21;20.90;1.00
17284;DHT22;8760;52.248;20.952;2022-08-21T02:03:47;20.90;1.00
17284;DHT22;8760;52.248;20.952;2022-08-21T02:06:15;20.80;1.00
17284;DHT22;8760;52.248;20.952;2022-08-21T02:08:43;20.80;1.00
17284;DHT22;8760;52.248;20.952;2022-08-21T02:11:10;20.80;1.00
17284;DHT22;8760;52.248;20.952;2022-08-21T02:13:38;20.70;1.00
17284;DHT22;8760;52.248;20.952;2022-08-21T02:16:05;20.70;1.00
17284;DHT22;8760;52.248;20.952;2022-08-21T02:18:33;20.70;1.00
17284;DHT22;8760;52.248;20.952;2022-08-21T02:21:00;20.60;1.00
17284;DHT22;8760;52.248;20.952;2022-08-21T02:23:27;20.60;1.00
17284;DHT22;8760;52.248;20.952;2022-08-21T02:25:54;20.60;1.00
17284;DHT22;8760;52.248;20.952;2022-08-21T02:28:21;20.50;1.00
17284;DHT22;8760;52.248;20.952;2022-08-21T02:30:50;20.50;1.00
17284;DHT22;8760;52.248;20.952;2022-08-21T02:33:17;20.60;1.00
17284;DHT22;8760;52.248;20.952;2022-08-21T02:35:45;20.60;1.00
17284;DHT22;8760;52.248;20.952;2022-08-21T02:38:13;20.60;1.00
17284;DHT22;8760;52.248;20.952;2022-08-21T02:40:43;20.60;1.00
17284;DHT22;8760;52.248;20.952;2022-08-21T02:43:11;20.70;1.00
17284;DHT22;8760;52.248;20.952;2022-08-21T02:45:38;20.70;1.00
17284;DHT22;8760;52.248;20.952;2022-08-21T02:48:09;20.80;1.00
17284;DHT22;8760;52.248;20.952;2022-08-21T02:50:38;20.80;1.00
17284;DHT22;8760;52.248;20.952;2022-08-21T02:53:06;20.70;1.00
17284;DHT22;8760;52.248;20.952;2022-08-21T02:55:35;20.70;1.00
17284;DHT22;8760;52.248;20.952;2022-08-21T02:58:03;20.60;1.00
17284;DHT22;8760;52.248;20.952;2022-08-21T03:00:32;20.70;1.00
17284;DHT22;8760;52.248;20.952;2022-08-21T03:03:00;20.60;1.00
17284;DHT22;8760;52.248;20.952;2022-08-21T03:05:29;20.60;1.00
17284;DHT22;8760;52.248;20.952;2022-08-21T03:07:58;20.50;1.00
17284;DHT22;8760;52.248;20.952;2022-08-21T03:10:25;20.50;1.00
17284;DHT22;8760;52.248;20.952;2022-08-21T03:12:52;20.50;1.00
17284;DHT22;8760;52.248;20.952;2022-08-21T03:15:22;20.50;1.00
17284;DHT22;8760;52.248;20.952;2022-08-21T03:17:49;20.50;1.00
17284;DHT22;8760;52.248;20.952;2022-08-21T03:20:18;20.40;1.00
17284;DHT22;8760;52.248;20.952;2022-08-21T03:22:49;20.40;1.00
17284;DHT22;8760;52.248;20.952;2022-08-21T03:25:17;20.40;1.00
17284;DHT22;8760;52.248;20.952;2022-08-21T03:27:44;20.40;1.00
17284;DHT22;8760;52.248;20.952;2022-08-21T03:30:12;20.40;1.00
17284;DHT22;8760;52.248;20.952;2022-08-21T03:32:39;20.40;1.00
17284;DHT22;8760;52.248;20.952;2022-08-21T03:35:07;20.30;1.00
17284;DHT22;8760;52.248;20.952;2022-08-21T03:37:34;20.30;1.00
17284;DHT22;8760;52.248;20.952;2022-08-21T03:40:03;20.30;1.00
17284;DHT22;8760;52.248;20.952;2022-08-21T03:42:29;20.30;6.60
17284;DHT22;8760;52.248;20.952;2022-08-21T03:44:56;20.30;1.10
17284;DHT22;8760;52.248;20.952;2022-08-21T03:47:23;20.30;11.80
17284;DHT22;8760;52.248;20.952;2022-08-21T03:49:50;20.30;1.00
17284;DHT22;8760;52.248;20.952;2022-08-21T03:52:17;20.30;5.10
17284;DHT22;8760;52.248;20.952;2022-08-21T03:54:44;20.30;12.20
17284;DHT22;8760;52.248;20.952;2022-08-21T03:57:13;20.30;1.00
17284;DHT22;8760;52.248;20.952;2022-08-21T03:59:40;20.40;2.80
17284;DHT22;8760;52.248;20.952;2022-08-21T04:02:09;20.40;1.00
17284;DHT22;8760;52.248;20.952;2022-08-21T04:04:36;20.40;3.70
17284;DHT22;8760;52.248;20.952;2022-08-21T04:07:04;20.40;1.00
17284;DHT22;8760;52.248;20.952;2022-08-21T04:09:30;20.40;1.00
17284;DHT22;8760;52.248;20.952;2022-08-21T04:11:58;20.50;1.00
17284;DHT22;8760;52.248;20.952;2022-08-21T04:14:26;20.50;1.00
17284;DHT22;8760;52.248;20.952;2022-08-21T04:16:53;20.50;1.00
17284;DHT22;8760;52.248;20.952;2022-08-21T04:19:20;20.60;1.00
17284;DHT22;8760;52.248;20.952;2022-08-21T04:21:46;20.60;1.00
17284;DHT22;8760;52.248;20.952;2022-08-21T04:24:15;20.60;1.00
17284;DHT22;8760;52.248;20.952;2022-08-21T04:26:42;20.60;1.00
17284;DHT22;8760;52.248;20.952;2022-08-21T04:29:08;20.70;1.00
17284;DHT22;8760;52.248;20.952;2022-08-21T04:31:37;20.70;1.00
17284;DHT22;8760;52.248;20.952;2022-08-21T04:34:04;20.70;1.00
17284;DHT22;8760;52.248;20.952;2022-08-21T04:36:31;20.80;1.00
17284;DHT22;8760;52.248;20.952;2022-08-21T04:38:58;20.80;1.00
17284;DHT22;8760;52.248;20.952;2022-08-21T04:41:25;20.80;1.00
17284;DHT22;8760;52.248;20.952;2022-08-21T04:43:52;20.90;1.00
17284;DHT22;8760;52.248;20.952;2022-08-21T04:46:20;20.90;1.00
17284;DHT22;8760;52.248;20.952;2022-08-21T04:48:48;21.00;1.00
17284;DHT22;8760;52.248;20.952;2022-08-21T04:51:19;21.00;1.00
17284;DHT22;8760;52.248;20.952;2022-08-21T04:53:52;21.10;1.00
17284;DHT22;8760;52.248;20.952;2022-08-21T04:56:20;21.20;1.00
17284;DHT22;8760;52.248;20.952;2022-08-21T04:58:49;21.30;1.00
17284;DHT22;8760;52.248;20.952;2022-08-21T05:01:20;21.30;99.90
17284;DHT22;8760;52.248;20.952;2022-08-21T05:03:52;21.40;99.90
17284;DHT22;8760;52.248;20.952;2022-08-21T05:06:20;21.40;99.90
17284;DHT22;8760;52.248;20.952;2022-08-21T05:08:48;21.50;99.90
17284;DHT22;8760;52.248;20.952;2022-08-21T05:11:17;21.70;70.10
17284;DHT22;8760;52.248;20.952;2022-08-21T05:13:44;21.80;99.90
17284;DHT22;8760;52.248;20.952;2022-08-21T05:16:12;21.80;40.20
17284;DHT22;8760;52.248;20.952;2022-08-21T05:18:39;21.90;1.00
17284;DHT22;8760;52.248;20.952;2022-08-21T05:21:07;22.00;1.00
17284;DHT22;8760;52.248;20.952;2022-08-21T05:23:35;22.20;1.00
17284;DHT22;8760;52.248;20.952;2022-08-21T05:26:02;22.30;99.90
17284;DHT22;8760;52.248;20.952;2022-08-21T05:28:29;22.40;99.90
17284;DHT22;8760;52.248;20.952;2022-08-21T05:30:56;22.30;99.90
17284;DHT22;8760;52.248;20.952;2022-08-21T05:33:23;22.50;1.00
17284;DHT22;8760;52.248;20.952;2022-08-21T05:35:50;22.40;34.50
17284;DHT22;8760;52.248;20.952;2022-08-21T05:38:19;22.60;1.00
17284;DHT22;8760;52.248;20.952;2022-08-21T05:40:46;22.60;1.00
17284;DHT22;8760;52.248;20.952;2022-08-21T05:43:13;22.70;1.00
17284;DHT22;8760;52.248;20.952;2022-08-21T05:45:40;22.80;1.00
17284;DHT22;8760;52.248;20.952;2022-08-21T05:48:08;23.00;17.20
17284;DHT22;8760;52.248;20.952;2022-08-21T05:50:35;23.00;1.00
17284;DHT22;8760;52.248;20.952;2022-08-21T05:53:03;23.20;1.00
17284;DHT22;8760;52.248;20.952;2022-08-21T05:55:31;23.30;11.60
17284;DHT22;8760;52.248;20.952;2022-08-21T05:57:58;23.30;99.90
17284;DHT22;8760;52.248;20.952;2022-08-21T06:00:25;23.40;1.00
17284;DHT22;8760;52.248;20.952;2022-08-21T06:02:52;23.40;1.00
17284;DHT22;8760;52.248;20.952;2022-08-21T06:05:19;23.30;1.00
17284;DHT22;8760;52.248;20.952;2022-08-21T06:07:45;23.10;99.90
17284;DHT22;8760;52.248;20.952;2022-08-21T06:10:12;23.20;1.00
17284;DHT22;8760;52.248;20.952;2022-08-21T06:12:40;23.20;99.90
17284;DHT22;8760;52.248;20.952;2022-08-21T06:15:07;23.30;1.00
17284;DHT22;8760;52.248;20.952;2022-08-21T06:17:34;23.50;1.00
17284;DHT22;8760;52.248;20.952;2022-08-21T06:20:02;23.40;99.90
17284;DHT22;8760;52.248;20.952;2022-08-21T06:22:29;23.60;45.50
17284;DHT22;8760;52.248;20.952;2022-08-21T06:24:56;23.80;1.00
17284;DHT22;8760;52.248;20.952;2022-08-21T06:27:23;23.80;99.90
17284;DHT22;8760;52.248;20.952;2022-08-21T06:29:51;23.90;1.00
17284;DHT22;8760;52.248;20.952;2022-08-21T06:32:18;24.00;32.00
17284;DHT22;8760;52.248;20.952;2022-08-21T06:34:44;24.20;1.00
17284;DHT22;8760;52.248;20.952;2022-08-21T06:37:11;24.40;1.00
17284;DHT22;8760;52.248;20.952;2022-08-21T06:39:38;24.60;1.00
17284;DHT22;8760;52.248;20.952;2022-08-21T06:42:05;24.80;1.00
17284;DHT22;8760;52.248;20.952;2022-08-21T06:44:31;24.90;99.90
17284;DHT22;8760;52.248;20.952;2022-08-21T06:47:00;24.90;86.30
17284;DHT22;8760;52.248;20.952;2022-08-21T06:49:26;25.10;99.90
17284;DHT22;8760;52.248;20.952;2022-08-21T06:51:53;25.10;1.00
17284;DHT22;8760;52.248;20.952;2022-08-21T06:54:20;25.30;99.90
17284;DHT22;8760;52.248;20.952;2022-08-21T06:56:47;25.20;1.00
17284;DHT22;8760;52.248;20.952;2022-08-21T06:59:14;25.30;99.90
17284;DHT22;8760;52.248;20.952;2022-08-21T07:01:41;25.30;99.90
17284;DHT22;8760;52.248;20.952;2022-08-21T07:04:09;25.70;21.90
17284;DHT22;8760;52.248;20.952;2022-08-21T07:06:36;26.10;93.60
17284;DHT22;8760;52.248;20.952;2022-08-21T07:09:03;26.30;1.00
17284;DHT22;8760;52.248;20.952;2022-08-21T07:11:30;26.60;1.00
17284;DHT22;8760;52.248;20.952;2022-08-21T07:13:57;26.80;1.00
17284;DHT22;8760;52.248;20.952;2022-08-21T07:16:24;26.70;1.00
17284;DHT22;8760;52.248;20.952;2022-08-21T07:18:51;27.00;1.00
17284;DHT22;8760;52.248;20.952;2022-08-21T07:21:19;27.10;1.00
17284;DHT22;8760;52.248;20.952;2022-08-21T07:23:48;27.30;99.90
17284;DHT22;8760;52.248;20.952;2022-08-21T07:26:17;27.90;99.90
17284;DHT22;8760;52.248;20.952;2022-08-21T07:28:45;28.10;1.00
17284;DHT22;8760;52.248;20.952;2022-08-21T07:31:14;28.70;1.00
17284;DHT22;8760;52.248;20.952;2022-08-21T07:33:42;28.90;1.00
17284;DHT22;8760;52.248;20.952;2022-08-21T07:36:09;29.10;1.00
17284;DHT22;8760;52.248;20.952;2022-08-21T07:38:37;29.30;1.00
17284;DHT22;8760;52.248;20.952;2022-08-21T07:41:10;29.70;1.00
17284;DHT22;8760;52.248;20.952;2022-08-21T07:43:38;29.90;1.00
17284;DHT22;8760;52.248;20.952;2022-08-21T07:46:05;29.90;1.00
17284;DHT22;8760;52.248;20.952;2022-08-21T07:48:32;30.20;1.00
17284;DHT22;8760;52.248;20.952;2022-08-21T07:50:59;30.20;1.00
17284;DHT22;8760;52.248;20.952;2022-08-21T07:53:28;30.40;1.00
17284;DHT22;8760;52.248;20.952;2022-08-21T07:55:58;30.60;1.00
17284;DHT22;8760;52.248;20.952;2022-08-21T07:58:25;30.60;1.00
17284;DHT22;8760;52.248;20.952;2022-08-21T08:00:51;30.80;1.00
17284;DHT22;8760;52.248;20.952;2022-08-21T08:03:18;30.80;1.00
17284;DHT22;8760;52.248;20.952;2022-08-21T08:05:45;30.80;1.00
17284;DHT22;8760;52.248;20.952;2022-08-21T08:08:12;30.60;99.90
17284;DHT22;8760;52.248;20.952;2022-08-21T08:10:39;30.80;1.00
17284;DHT22;8760;52.248;20.952;2022-08-21T08:13:07;31.10;99.90
17284;DHT22;8760;52.248;20.952;2022-08-21T08:15:34;31.30;99.90
17284;DHT22;8760;52.248;20.952;2022-08-21T08:18:00;31.40;99.90
17284;DHT22;8760;52.248;20.952;2022-08-21T08:20:27;31.50;99.90
17284;DHT22;8760;52.248;20.952;2022-08-21T08:22:55;31.70;99.90
17284;DHT22;8760;52.248;20.952;2022-08-21T08:25:24;31.90;99.90
17284;DHT22;8760;52.248;20.952;2022-08-21T08:27:51;32.50;99.90
17284;DHT22;8760;52.248;20.952;2022-08-21T08:30:20;32.30;99.90
17284;DHT22;8760;52.248;20.952;2022-08-21T08:32:47;32.40;99.90
17284;DHT22;8760;52.248;20.952;2022-08-21T08:35:15;32.30;99.90
17284;DHT22;8760;52.248;20.952;2022-08-21T08:37:43;32.60;99.90
17284;DHT22;8760;52.248;20.952;2022-08-21T08:40:12;32.60;99.90
17284;DHT22;8760;52.248;20.952;2022-08-21T08:42:40;32.90;99.90
17284;DHT22;8760;52.248;20.952;2022-08-21T08:45:10;32.60;99.90
17284;DHT22;8760;52.248;20.952;2022-08-21T08:47:40;32.80;99.90
17284;DHT22;8760;52.248;20.952;2022-08-21T08:50:12;32.80;99.90
17284;DHT22;8760;52.248;20.952;2022-08-21T08:52:43;33.30;99.90
17284;DHT22;8760;52.248;20.952;2022-08-21T08:55:15;33.40;99.90
17284;DHT22;8760;52.248;20.952;2022-08-21T08:57:45;33.50;99.90
17284;DHT22;8760;52.248;20.952;2022-08-21T09:00:16;33.60;99.90
17284;DHT22;8760;52.248;20.952;2022-08-21T09:02:46;33.70;99.90
17284;DHT22;8760;52.248;20.952;2022-08-21T09:05:21;33.90;99.90
17284;DHT22;8760;52.248;20.952;2022-08-21T09:08:09;34.30;99.90
17284;DHT22;8760;52.248;20.952;2022-08-21T09:10:48;33.90;99.90
17284;DHT22;8760;52.248;20.952;2022-08-21T09:13:24;33.30;99.90
17284;DHT22;8760;52.248;20.952;2022-08-21T09:16:00;32.80;99.90
17284;DHT22;8760;52.248;20.952;2022-08-21T09:18:38;33.10;99.90
17284;DHT22;8760;52.248;20.952;2022-08-21T09:21:14;33.40;99.90
17284;DHT22;8760;52.248;20.952;2022-08-21T09:23:49;33.10;99.90
17284;DHT22;8760;52.248;20.952;2022-08-21T09:26:23;32.60;99.90
17284;DHT22;8760;52.248;20.952;2022-08-21T09:28:54;33.00;99.90
17284;DHT22;8760;52.248;20.952;2022-08-21T09:31:24;33.10;99.90
17284;DHT22;8760;52.248;20.952;2022-08-21T09:33:58;32.30;99.90
17284;DHT22;8760;52.248;20.952;2022-08-21T09:36:33;32.20;99.90
17284;DHT22;8760;52.248;20.952;2022-08-21T09:39:00;31.90;99.90
17284;DHT22;8760;52.248;20.952;2022-08-21T09:41:29;31.30;99.90
17284;DHT22;8760;52.248;20.952;2022-08-21T09:43:56;31.40;99.90
17284;DHT22;8760;52.248;20.952;2022-08-21T09:46:24;30.80;99.90
17284;DHT22;8760;52.248;20.952;2022-08-21T09:48:53;30.30;99.90
17284;DHT22;8760;52.248;20.952;2022-08-21T09:51:23;30.50;99.90
17284;DHT22;8760;52.248;20.952;2022-08-21T09:53:54;31.70;99.90
17284;DHT22;8760;52.248;20.952;2022-08-21T09:56:26;32.50;99.90
17284;DHT22;8760;52.248;20.952;2022-08-21T09:59:16;33.50;99.90
17284;DHT22;8760;52.248;20.952;2022-08-21T10:01:45;33.40;99.90
17284;DHT22;8760;52.248;20.952;2022-08-21T10:04:12;32.90;99.90
17284;DHT22;8760;52.248;20.952;2022-08-21T10:06:40;32.20;99.90
17284;DHT22;8760;52.248;20.952;2022-08-21T10:09:13;31.40;99.90
17284;DHT22;8760;52.248;20.952;2022-08-21T10:11:44;30.70;99.90
17284;DHT22;8760;52.248;20.952;2022-08-21T10:14:18;30.00;99.90
17284;DHT22;8760;52.248;20.952;2022-08-21T10:16:57;29.60;99.90
17284;DHT22;8760;52.248;20.952;2022-08-21T10:19:30;29.20;99.90
17284;DHT22;8760;52.248;20.952;2022-08-21T10:22:12;29.40;99.90
17284;DHT22;8760;52.248;20.952;2022-08-21T10:24:48;30.10;99.90
17284;DHT22;8760;52.248;20.952;2022-08-21T10:27:24;30.90;99.90
17284;DHT22;8760;52.248;20.952;2022-08-21T10:29:58;31.60;99.90
17284;DHT22;8760;52.248;20.952;2022-08-21T10:32:53;32.10;99.90
17284;DHT22;8760;52.248;20.952;2022-08-21T10:35:27;31.80;99.90
17284;DHT22;8760;52.248;20.952;2022-08-21T10:38:11;31.50;99.90
17284;DHT22;8760;52.248;20.952;2022-08-21T10:40:50;31.00;99.90
17284;DHT22;8760;52.248;20.952;2022-08-21T10:43:28;30.50;99.90
17284;DHT22;8760;52.248;20.952;2022-08-21T10:46:01;30.00;99.90
17284;DHT22;8760;52.248;20.952;2022-08-21T10:48:36;29.80;99.90
17284;DHT22;8760;52.248;20.952;2022-08-21T10:51:09;29.50;99.90
17284;DHT22;8760;52.248;20.952;2022-08-21T10:53:50;29.40;99.90
17284;DHT22;8760;52.248;20.952;2022-08-21T10:56:23;29.10;99.90
17284;DHT22;8760;52.248;20.952;2022-08-21T10:59:11;29.40;99.90
17284;DHT22;8760;52.248;20.952;2022-08-21T11:01:47;29.90;99.90
17284;DHT22;8760;52.248;20.952;2022-08-21T11:04:20;30.20;99.90
17284;DHT22;8760;52.248;20.952;2022-08-21T11:06:52;30.20;99.90
17284;DHT22;8760;52.248;20.952;2022-08-21T11:09:24;30.00;99.90
17284;DHT22;8760;52.248;20.952;2022-08-21T11:11:55;29.80;99.90
17284;DHT22;8760;52.248;20.952;2022-08-21T11:14:33;29.60;99.90
17284;DHT22;8760;52.248;20.952;2022-08-21T11:17:05;29.50;99.90
17284;DHT22;8760;52.248;20.952;2022-08-21T11:19:39;29.30;99.90
17284;DHT22;8760;52.248;20.952;2022-08-21T11:22:13;29.60;99.90
17284;DHT22;8760;52.248;20.952;2022-08-21T11:24:46;29.70;99.90
17284;DHT22;8760;52.248;20.952;2022-08-21T11:27:21;29.80;99.90
17284;DHT22;8760;52.248;20.952;2022-08-21T11:29:51;29.80;99.90
17284;DHT22;8760;52.248;20.952;2022-08-21T11:35:30;29.60;99.90
17284;DHT22;8760;52.248;20.952;2022-08-21T11:38:19;29.30;99.90
17284;DHT22;8760;52.248;20.952;2022-08-21T11:41:02;29.50;99.90
17284;DHT22;8760;52.248;20.952;2022-08-21T11:43:36;29.60;99.90
17284;DHT22;8760;52.248;20.952;2022-08-21T11:46:14;29.60;99.90
17284;DHT22;8760;52.248;20.952;2022-08-21T11:48:50;29.80;99.90
17284;DHT22;8760;52.248;20.952;2022-08-21T11:51:20;29.80;99.90
17284;DHT22;8760;52.248;20.952;2022-08-21T11:53:51;29.70;99.90
17284;DHT22;8760;52.248;20.952;2022-08-21T11:56:27;29.70;99.90
17284;DHT22;8760;52.248;20.952;2022-08-21T11:58:59;29.40;99.90
17284;DHT22;8760;52.248;20.952;2022-08-21T12:01:32;29.30;99.90
17284;DHT22;8760;52.248;20.952;2022-08-21T12:04:02;29.40;99.90
17284;DHT22;8760;52.248;20.952;2022-08-21T12:06:33;29.40;99.90
17284;DHT22;8760;52.248;20.952;2022-08-21T12:09:04;29.30;99.90
17284;DHT22;8760;52.248;20.952;2022-08-21T12:11:46;29.10;99.90
17284;DHT22;8760;52.248;20.952;2022-08-21T12:14:15;29.00;99.90
17284;DHT22;8760;52.248;20.952;2022-08-21T12:16:43;28.90;99.90
17284;DHT22;8760;52.248;20.952;2022-08-21T12:19:13;29.00;99.90
17284;DHT22;8760;52.248;20.952;2022-08-21T12:21:51;29.10;99.90
17284;DHT22;8760;52.248;20.952;2022-08-21T12:24:32;29.20;99.90
17284;DHT22;8760;52.248;20.952;2022-08-21T12:27:25;29.40;99.90
17284;DHT22;8760;52.248;20.952;2022-08-21T12:29:55;29.50;99.90
17284;DHT22;8760;52.248;20.952;2022-08-21T12:32:27;29.60;99.90
17284;DHT22;8760;52.248;20.952;2022-08-21T12:34:58;29.40;99.90
17284;DHT22;8760;52.248;20.952;2022-08-21T12:37:37;29.50;99.90
17284;DHT22;8760;52.248;20.952;2022-08-21T12:40:10;29.40;99.90
17284;DHT22;8760;52.248;20.952;2022-08-21T12:42:42;29.40;99.90
17284;DHT22;8760;52.248;20.952;2022-08-21T12:45:16;29.50;99.90
17284;DHT22;8760;52.248;20.952;2022-08-21T12:47:47;29.50;99.90
17284;DHT22;8760;52.248;20.952;2022-08-21T12:50:19;29.50;99.90
17284;DHT22;8760;52.248;20.952;2022-08-21T12:52:54;29.70;99.90
17284;DHT22;8760;52.248;20.952;2022-08-21T12:55:26;29.80;99.90
17284;DHT22;8760;52.248;20.952;2022-08-21T12:57:55;29.80;99.90
17284;DHT22;8760;52.248;20.952;2022-08-21T13:00:24;29.80;99.90
17284;DHT22;8760;52.248;20.952;2022-08-21T13:02:52;29.80;99.90
17284;DHT22;8760;52.248;20.952;2022-08-21T13:05:26;29.70;99.90
17284;DHT22;8760;52.248;20.952;2022-08-21T13:07:53;29.30;99.90
17284;DHT22;8760;52.248;20.952;2022-08-21T13:10:24;29.00;99.90
17284;DHT22;8760;52.248;20.952;2022-08-21T13:12:56;28.90;99.90
17284;DHT22;8760;52.248;20.952;2022-08-21T13:15:27;28.70;99.90
17284;DHT22;8760;52.248;20.952;2022-08-21T13:17:55;28.50;99.90
17284;DHT22;8760;52.248;20.952;2022-08-21T13:20:28;28.40;99.90
17284;DHT22;8760;52.248;20.952;2022-08-21T13:22:56;28.30;99.90
17284;DHT22;8760;52.248;20.952;2022-08-21T13:25:26;28.30;99.90
17284;DHT22;8760;52.248;20.952;2022-08-21T13:28:00;28.20;99.90
17284;DHT22;8760;52.248;20.952;2022-08-21T13:30:28;28.20;99.90
17284;DHT22;8760;52.248;20.952;2022-08-21T13:32:57;28.20;99.90
17284;DHT22;8760;52.248;20.952;2022-08-21T13:35:27;28.10;99.90
17284;DHT22;8760;52.248;20.952;2022-08-21T13:37:55;28.20;99.90
17284;DHT22;8760;52.248;20.952;2022-08-21T13:40:25;28.30;99.90
17284;DHT22;8760;52.248;20.952;2022-08-21T13:42:52;28.50;99.90
17284;DHT22;8760;52.248;20.952;2022-08-21T13:45:27;28.70;99.90
17284;DHT22;8760;52.248;20.952;2022-08-21T13:47:54;28.70;99.90
17284;DHT22;8760;52.248;20.952;2022-08-21T13:50:23;28.70;99.90
17284;DHT22;8760;52.248;20.952;2022-08-21T13:52:58;28.70;99.90
17284;DHT22;8760;52.248;20.952;2022-08-21T13:55:25;28.50;99.90
17284;DHT22;8760;52.248;20.952;2022-08-21T13:58:01;28.40;99.90
17284;DHT22;8760;52.248;20.952;2022-08-21T14:00:31;28.40;99.90
17284;DHT22;8760;52.248;20.952;2022-08-21T14:03:03;28.50;99.90
17284;DHT22;8760;52.248;20.952;2022-08-21T14:05:33;28.40;99.90
17284;DHT22;8760;52.248;20.952;2022-08-21T14:08:04;28.40;99.90
17284;DHT22;8760;52.248;20.952;2022-08-21T14:10:31;28.40;99.90
17284;DHT22;8760;52.248;20.952;2022-08-21T14:13:04;28.50;99.90
17284;DHT22;8760;52.248;20.952;2022-08-21T14:15:34;28.40;99.90
17284;DHT22;8760;52.248;20.952;2022-08-21T14:18:10;28.30;99.90
17284;DHT22;8760;52.248;20.952;2022-08-21T14:20:39;28.30;99.90
17284;DHT22;8760;52.248;20.952;2022-08-21T14:23:06;28.30;99.90
17284;DHT22;8760;52.248;20.952;2022-08-21T14:25:38;28.20;99.90
17284;DHT22;8760;52.248;20.952;2022-08-21T14:28:20;28.10;99.90
17284;DHT22;8760;52.248;20.952;2022-08-21T14:30:52;28.10;99.90
17284;DHT22;8760;52.248;20.952;2022-08-21T14:33:26;28.00;99.90
17284;DHT22;8760;52.248;20.952;2022-08-21T14:35:53;27.90;99.90
17284;DHT22;8760;52.248;20.952;2022-08-21T14:38:22;27.80;99.90
17284;DHT22;8760;52.248;20.952;2022-08-21T14:40:51;27.80;99.90
17284;DHT22;8760;52.248;20.952;2022-08-21T14:43:19;27.80;99.90
17284;DHT22;8760;52.248;20.952;2022-08-21T14:45:46;27.80;99.90
17284;DHT22;8760;52.248;20.952;2022-08-21T14:48:15;27.90;99.90
17284;DHT22;8760;52.248;20.952;2022-08-21T14:50:41;28.00;99.90
17284;DHT22;8760;52.248;20.952;2022-08-21T14:53:09;28.00;99.90
17284;DHT22;8760;52.248;20.952;2022-08-21T14:55:37;28.10;99.90
17284;DHT22;8760;52.248;20.952;2022-08-21T14:58:18;28.00;99.90
17284;DHT22;8760;52.248;20.952;2022-08-21T15:00:45;28.10;99.90
17284;DHT22;8760;52.248;20.952;2022-08-21T15:03:12;28.10;99.90
17284;DHT22;8760;52.248;20.952;2022-08-21T15:05:40;28.10;99.90
17284;DHT22;8760;52.248;20.952;2022-08-21T15:08:07;28.10;99.90
17284;DHT22;8760;52.248;20.952;2022-08-21T15:10:34;28.20;99.90
17284;DHT22;8760;52.248;20.952;2022-08-21T15:13:02;28.20;99.90
17284;DHT22;8760;52.248;20.952;2022-08-21T15:15:30;28.10;99.90
17284;DHT22;8760;52.248;20.952;2022-08-21T15:17:58;28.00;99.90
17284;DHT22;8760;52.248;20.952;2022-08-21T15:20:25;27.90;99.90
17284;DHT22;8760;52.248;20.952;2022-08-21T15:22:53;27.80;99.90
17284;DHT22;8760;52.248;20.952;2022-08-21T15:25:20;27.70;99.90
17284;DHT22;8760;52.248;20.952;2022-08-21T15:27:47;27.70;99.90
17284;DHT22;8760;52.248;20.952;2022-08-21T15:30:14;27.60;99.90
17284;DHT22;8760;52.248;20.952;2022-08-21T15:32:40;27.60;99.90
17284;DHT22;8760;52.248;20.952;2022-08-21T15:35:07;27.60;99.90
17284;DHT22;8760;52.248;20.952;2022-08-21T15:37:34;27.60;99.90
17284;DHT22;8760;52.248;20.952;2022-08-21T15:40:03;27.60;99.90
17284;DHT22;8760;52.248;20.952;2022-08-21T15:42:32;27.40;99.90
17284;DHT22;8760;52.248;20.952;2022-08-21T15:44:59;27.30;99.90
17284;DHT22;8760;52.248;20.952;2022-08-21T15:47:29;27.30;99.90
17284;DHT22;8760;52.248;20.952;2022-08-21T15:49:56;27.20;99.90
17284;DHT22;8760;52.248;20.952;2022-08-21T15:52:23;27.20;99.90
17284;DHT22;8760;52.248;20.952;2022-08-21T15:54:50;27.20;99.90